sensor_id;sensor_type;location;lat;lon;timestamp;P1;durP1;ratioP1;P2;durP2;ratioP2
34541;SDS011;20784;51.332;12.410;2023-07-24T00:01:32;2.22;;;1.50;;
34541;SDS011;20784;51.332;12.410;2023-07-24T00:03:58;2.40;;;1.52;;
34541;SDS011;20784;51.332;12.410;2023-07-24T00:06:24;2.40;;;1.77;;
34541;SDS011;20784;51.332;12.410;2023-07-24T00:08:49;2.30;;;1.70;;
34541;SDS011;20784;51.332;12.410;2023-07-24T00:11:15;5.47;;;2.17;;
34541;SDS011;20784;51.332;12.410;2023-07-24T00:13:41;2.92;;;1.85;;
34541;SDS011;20784;51.332;12.410;2023-07-24T00:16:07;2.72;;;1.80;;
34541;SDS011;20784;51.332;12.410;2023-07-24T00:18:33;3.78;;;1.80;;
34541;SDS011;20784;51.332;12.410;2023-07-24T00:20:59;1.95;;;1.55;;
34541;SDS011;20784;51.332;12.410;2023-07-24T00:23:25;2.58;;;1.60;;
34541;SDS011;20784;51.332;12.410;2023-07-24T00:25:50;2.70;;;1.50;;
34541;SDS011;20784;51.332;12.410;2023-07-24T00:28:16;2.38;;;1.73;;
34541;SDS011;20784;51.332;12.410;2023-07-24T00:30:42;3.03;;;1.73;;
34541;SDS011;20784;51.332;12.410;2023-07-24T00:33:09;3.10;;;1.55;;
34541;SDS011;20784;51.332;12.410;2023-07-24T00:35:35;2.25;;;1.77;;
34541;SDS011;20784;51.332;12.410;2023-07-24T00:38:01;2.22;;;1.50;;
34541;SDS011;20784;51.332;12.410;2023-07-24T00:40:29;2.10;;;1.42;;
34541;SDS011;20784;51.332;12.410;2023-07-24T00:42:54;2.78;;;2.00;;
34541;SDS011;20784;51.332;12.410;2023-07-24T00:45:22;2.17;;;1.73;;
34541;SDS011;20784;51.332;12.410;2023-07-24T00:47:47;3.25;;;1.90;;
34541;SDS011;20784;51.332;12.410;2023-07-24T00:50:13;1.92;;;1.40;;
34541;SDS011;20784;51.332;12.410;2023-07-24T00:52:39;5.22;;;1.92;;
34541;SDS011;20784;51.332;12.410;2023-07-24T00:55:06;2.05;;;1.67;;
34541;SDS011;20784;51.332;12.410;2023-07-24T00:57:32;5.22;;;1.70;;
34541;SDS011;20784;51.332;12.410;2023-07-24T01:00:01;3.42;;;1.50;;
34541;SDS011;20784;51.332;12.410;2023-07-24T01:02:28;2.22;;;1.60;;
34541;SDS011;20784;51.332;12.410;2023-07-24T01:04:55;2.35;;;1.67;;
34541;SDS011;20784;51.332;12.410;2023-07-24T01:07:20;5.03;;;1.73;;
34541;SDS011;20784;51.332;12.410;2023-07-24T01:09:46;2.80;;;1.70;;
34541;SDS011;20784;51.332;12.410;2023-07-24T01:12:31;1.98;;;1.52;;
34541;SDS011;20784;51.332;12.410;2023-07-24T01:15:10;2.63;;;1.55;;
34541;SDS011;20784;51.332;12.410;2023-07-24T01:17:59;2.47;;;1.88;;
34541;SDS011;20784;51.332;12.410;2023-07-24T01:20:36;2.30;;;1.48;;
34541;SDS011;20784;51.332;12.410;2023-07-24T01:23:37;2.85;;;1.50;;
34541;SDS011;20784;51.332;12.410;2023-07-24T01:26:17;3.08;;;1.67;;
34541;SDS011;20784;51.332;12.410;2023-07-24T01:28:46;3.53;;;1.67;;
34541;SDS011;20784;51.332;12.410;2023-07-24T01:31:12;3.40;;;1.80;;
34541;SDS011;20784;51.332;12.410;2023-07-24T01:33:41;3.35;;;1.80;;
34541;SDS011;20784;51.332;12.410;2023-07-24T01:36:06;2.25;;;1.70;;
34541;SDS011;20784;51.332;12.410;2023-07-24T01:38:33;2.42;;;1.58;;
34541;SDS011;20784;51.332;12.410;2023-07-24T01:41:00;2.03;;;1.52;;
34541;SDS011;20784;51.332;12.410;2023-07-24T01:43:27;2.30;;;1.75;;
34541;SDS011;20784;51.332;12.410;2023-07-24T01:45:54;6.00;;;1.60;;
34541;SDS011;20784;51.332;12.410;2023-07-24T01:48:19;4.13;;;1.65;;
34541;SDS011;20784;51.332;12.410;2023-07-24T01:50:45;2.40;;;1.80;;
34541;SDS011;20784;51.332;12.410;2023-07-24T01:53:11;5.05;;;1.80;;
34541;SDS011;20784;51.332;12.410;2023-07-24T01:55:36;2.38;;;1.80;;
34541;SDS011;20784;51.332;12.410;2023-07-24T01:58:02;3.20;;;1.90;;
34541;SDS011;20784;51.332;12.410;2023-07-24T02:00:28;2.75;;;1.90;;
34541;SDS011;20784;51.332;12.410;2023-07-24T02:02:53;2.40;;;1.75;;
34541;SDS011;20784;51.332;12.410;2023-07-24T02:05:19;4.63;;;1.90;;
34541;SDS011;20784;51.332;12.410;2023-07-24T02:07:45;3.90;;;1.70;;
34541;SDS011;20784;51.332;12.410;2023-07-24T02:10:10;3.92;;;1.92;;
34541;SDS011;20784;51.332;12.410;2023-07-24T02:12:36;4.55;;;1.63;;
34541;SDS011;20784;51.332;12.410;2023-07-24T02:15:02;2.67;;;1.90;;
34541;SDS011;20784;51.332;12.410;2023-07-24T02:17:27;3.22;;;2.03;;
34541;SDS011;20784;51.332;12.410;2023-07-24T02:19:55;3.47;;;2.17;;
34541;SDS011;20784;51.332;12.410;2023-07-24T02:22:27;4.30;;;1.73;;
34541;SDS011;20784;51.332;12.410;2023-07-24T02:24:52;2.55;;;1.77;;
34541;SDS011;20784;51.332;12.410;2023-07-24T02:27:25;3.45;;;2.15;;
34541;SDS011;20784;51.332;12.410;2023-07-24T02:29:57;3.15;;;2.30;;
34541;SDS011;20784;51.332;12.410;2023-07-24T02:32:25;3.15;;;2.20;;
34541;SDS011;20784;51.332;12.410;2023-07-24T02:34:51;5.50;;;2.30;;
34541;SDS011;20784;51.332;12.410;2023-07-24T02:37:20;2.95;;;2.05;;
34541;SDS011;20784;51.332;12.410;2023-07-24T02:39:46;3.67;;;2.63;;
34541;SDS011;20784;51.332;12.410;2023-07-24T02:42:11;3.90;;;2.30;;
34541;SDS011;20784;51.332;12.410;2023-07-24T02:44:37;3.55;;;2.25;;
34541;SDS011;20784;51.332;12.410;2023-07-24T02:47:03;3.47;;;2.22;;
34541;SDS011;20784;51.332;12.410;2023-07-24T02:49:29;5.25;;;2.67;;
34541;SDS011;20784;51.332;12.410;2023-07-24T02:51:55;5.10;;;2.33;;
34541;SDS011;20784;51.332;12.410;2023-07-24T02:54:20;5.57;;;2.72;;
34541;SDS011;20784;51.332;12.410;2023-07-24T02:56:46;5.55;;;3.00;;
34541;SDS011;20784;51.332;12.410;2023-07-24T02:59:11;4.18;;;2.53;;
34541;SDS011;20784;51.332;12.410;2023-07-24T03:01:39;4.53;;;2.67;;
34541;SDS011;20784;51.332;12.410;2023-07-24T03:04:05;5.05;;;2.33;;
34541;SDS011;20784;51.332;12.410;2023-07-24T03:06:33;5.85;;;3.03;;
34541;SDS011;20784;51.332;12.410;2023-07-24T03:08:59;3.60;;;2.80;;
34541;SDS011;20784;51.332;12.410;2023-07-24T03:11:25;6.35;;;2.53;;
34541;SDS011;20784;51.332;12.410;2023-07-24T03:13:51;5.38;;;2.40;;
34541;SDS011;20784;51.332;12.410;2023-07-24T03:16:17;4.38;;;2.90;;
34541;SDS011;20784;51.332;12.410;2023-07-24T03:18:44;7.43;;;2.40;;
34541;SDS011;20784;51.332;12.410;2023-07-24T03:21:10;3.95;;;2.80;;
34541;SDS011;20784;51.332;12.410;2023-07-24T03:23:38;6.15;;;2.45;;
34541;SDS011;20784;51.332;12.410;2023-07-24T03:26:12;3.58;;;2.70;;
34541;SDS011;20784;51.332;12.410;2023-07-24T03:31:06;4.30;;;2.60;;
34541;SDS011;20784;51.332;12.410;2023-07-24T03:33:32;4.28;;;2.70;;
34541;SDS011;20784;51.332;12.410;2023-07-24T03:35:58;3.60;;;2.58;;
34541;SDS011;20784;51.332;12.410;2023-07-24T03:38:23;3.95;;;2.55;;
34541;SDS011;20784;51.332;12.410;2023-07-24T03:40:49;4.38;;;3.00;;
34541;SDS011;20784;51.332;12.410;2023-07-24T03:43:14;4.45;;;2.83;;
34541;SDS011;20784;51.332;12.410;2023-07-24T03:45:40;3.60;;;2.42;;
34541;SDS011;20784;51.332;12.410;2023-07-24T03:48:07;3.95;;;2.85;;
34541;SDS011;20784;51.332;12.410;2023-07-24T03:50:32;8.23;;;2.55;;
34541;SDS011;20784;51.332;12.410;2023-07-24T03:52:58;4.07;;;2.97;;
34541;SDS011;20784;51.332;12.410;2023-07-24T03:55:24;3.28;;;2.50;;
34541;SDS011;20784;51.332;12.410;2023-07-24T03:57:49;6.88;;;2.40;;
34541;SDS011;20784;51.332;12.410;2023-07-24T04:00:15;4.43;;;2.58;;
34541;SDS011;20784;51.332;12.410;2023-07-24T04:02:41;5.13;;;3.17;;
34541;SDS011;20784;51.332;12.410;2023-07-24T04:05:06;6.38;;;2.78;;
34541;SDS011;20784;51.332;12.410;2023-07-24T04:07:32;16.60;;;2.90;;
34541;SDS011;20784;51.332;12.410;2023-07-24T04:09:58;3.35;;;2.50;;
34541;SDS011;20784;51.332;12.410;2023-07-24T04:12:23;3.65;;;2.50;;
34541;SDS011;20784;51.332;12.410;2023-07-24T04:14:49;5.38;;;2.72;;
34541;SDS011;20784;51.332;12.410;2023-07-24T04:17:15;4.03;;;3.05;;
34541;SDS011;20784;51.332;12.410;2023-07-24T04:19:41;4.70;;;2.45;;
34541;SDS011;20784;51.332;12.410;2023-07-24T04:22:06;5.07;;;2.50;;
34541;SDS011;20784;51.332;12.410;2023-07-24T04:24:32;4.97;;;2.72;;
34541;SDS011;20784;51.332;12.410;2023-07-24T04:26:57;4.85;;;3.10;;
34541;SDS011;20784;51.332;12.410;2023-07-24T04:29:23;2.78;;;2.33;;
34541;SDS011;20784;51.332;12.410;2023-07-24T04:31:50;4.05;;;2.67;;
34541;SDS011;20784;51.332;12.410;2023-07-24T04:34:16;4.28;;;2.50;;
34541;SDS011;20784;51.332;12.410;2023-07-24T04:36:42;4.00;;;2.60;;
34541;SDS011;20784;51.332;12.410;2023-07-24T04:39:08;4.15;;;2.80;;
34541;SDS011;20784;51.332;12.410;2023-07-24T04:41:33;4.45;;;2.72;;
34541;SDS011;20784;51.332;12.410;2023-07-24T04:43:59;5.50;;;3.20;;
34541;SDS011;20784;51.332;12.410;2023-07-24T04:46:28;4.13;;;2.90;;
34541;SDS011;20784;51.332;12.410;2023-07-24T04:48:53;5.10;;;2.88;;
34541;SDS011;20784;51.332;12.410;2023-07-24T04:51:19;6.15;;;2.50;;
34541;SDS011;20784;51.332;12.410;2023-07-24T04:53:44;4.13;;;2.83;;
34541;SDS011;20784;51.332;12.410;2023-07-24T04:56:10;4.55;;;2.97;;
34541;SDS011;20784;51.332;12.410;2023-07-24T04:58:39;5.03;;;2.47;;
34541;SDS011;20784;51.332;12.410;2023-07-24T05:01:04;7.15;;;2.88;;
34541;SDS011;20784;51.332;12.410;2023-07-24T05:03:36;13.45;;;8.13;;
34541;SDS011;20784;51.332;12.410;2023-07-24T05:06:02;7.25;;;4.53;;
34541;SDS011;20784;51.332;12.410;2023-07-24T05:08:30;5.20;;;3.58;;
34541;SDS011;20784;51.332;12.410;2023-07-24T05:10:58;13.17;;;7.40;;
34541;SDS011;20784;51.332;12.410;2023-07-24T05:13:24;6.18;;;3.08;;
34541;SDS011;20784;51.332;12.410;2023-07-24T05:15:53;5.20;;;2.72;;
34541;SDS011;20784;51.332;12.410;2023-07-24T05:18:19;5.07;;;3.25;;
34541;SDS011;20784;51.332;12.410;2023-07-24T05:20:47;13.60;;;3.20;;
34541;SDS011;20784;51.332;12.410;2023-07-24T05:23:16;5.05;;;3.08;;
34541;SDS011;20784;51.332;12.410;2023-07-24T05:25:42;5.13;;;2.92;;
34541;SDS011;20784;51.332;12.410;2023-07-24T05:28:08;4.43;;;2.92;;
34541;SDS011;20784;51.332;12.410;2023-07-24T05:30:46;4.63;;;3.30;;
34541;SDS011;20784;51.332;12.410;2023-07-24T05:33:30;4.97;;;3.00;;
34541;SDS011;20784;51.332;12.410;2023-07-24T05:36:10;5.63;;;3.05;;
34541;SDS011;20784;51.332;12.410;2023-07-24T05:38:38;5.00;;;3.13;;
34541;SDS011;20784;51.332;12.410;2023-07-24T05:43:36;3.35;;;2.72;;
34541;SDS011;20784;51.332;12.410;2023-07-24T05:46:07;4.15;;;2.70;;
34541;SDS011;20784;51.332;12.410;2023-07-24T05:48:35;5.63;;;3.05;;
34541;SDS011;20784;51.332;12.410;2023-07-24T05:51:01;5.70;;;2.85;;
34541;SDS011;20784;51.332;12.410;2023-07-24T05:53:26;4.63;;;2.92;;
34541;SDS011;20784;51.332;12.410;2023-07-24T05:55:56;4.00;;;3.08;;
34541;SDS011;20784;51.332;12.410;2023-07-24T05:58:24;4.40;;;3.22;;
34541;SDS011;20784;51.332;12.410;2023-07-24T06:00:50;6.13;;;3.25;;
34541;SDS011;20784;51.332;12.410;2023-07-24T06:03:16;6.82;;;3.35;;
34541;SDS011;20784;51.332;12.410;2023-07-24T06:05:44;4.38;;;3.10;;
34541;SDS011;20784;51.332;12.410;2023-07-24T06:08:10;4.65;;;3.22;;
34541;SDS011;20784;51.332;12.410;2023-07-24T06:10:37;4.70;;;3.17;;
34541;SDS011;20784;51.332;12.410;2023-07-24T06:13:02;8.20;;;3.78;;
34541;SDS011;20784;51.332;12.410;2023-07-24T06:15:28;6.28;;;4.03;;
34541;SDS011;20784;51.332;12.410;2023-07-24T06:17:54;4.75;;;3.20;;
34541;SDS011;20784;51.332;12.410;2023-07-24T06:20:19;4.28;;;2.78;;
34541;SDS011;20784;51.332;12.410;2023-07-24T06:22:48;4.75;;;2.95;;
34541;SDS011;20784;51.332;12.410;2023-07-24T06:25:19;6.40;;;3.60;;
34541;SDS011;20784;51.332;12.410;2023-07-24T06:27:44;6.45;;;3.10;;
34541;SDS011;20784;51.332;12.410;2023-07-24T06:30:10;4.70;;;3.20;;
34541;SDS011;20784;51.332;12.410;2023-07-24T06:32:38;4.97;;;3.17;;
34541;SDS011;20784;51.332;12.410;2023-07-24T06:35:07;6.95;;;3.42;;
34541;SDS011;20784;51.332;12.410;2023-07-24T06:37:38;4.57;;;3.28;;
34541;SDS011;20784;51.332;12.410;2023-07-24T06:40:04;5.55;;;3.67;;
34541;SDS011;20784;51.332;12.410;2023-07-24T06:42:31;7.03;;;3.63;;
34541;SDS011;20784;51.332;12.410;2023-07-24T06:44:56;5.05;;;3.35;;
34541;SDS011;20784;51.332;12.410;2023-07-24T06:47:22;4.45;;;3.20;;
34541;SDS011;20784;51.332;12.410;2023-07-24T06:49:50;7.03;;;3.78;;
34541;SDS011;20784;51.332;12.410;2023-07-24T06:52:16;7.57;;;3.28;;
34541;SDS011;20784;51.332;12.410;2023-07-24T06:54:42;5.75;;;3.28;;
34541;SDS011;20784;51.332;12.410;2023-07-24T06:57:07;5.82;;;2.95;;
34541;SDS011;20784;51.332;12.410;2023-07-24T06:59:33;6.55;;;3.70;;
34541;SDS011;20784;51.332;12.410;2023-07-24T07:01:58;6.93;;;3.17;;
34541;SDS011;20784;51.332;12.410;2023-07-24T07:04:24;4.80;;;3.55;;
34541;SDS011;20784;51.332;12.410;2023-07-24T07:06:50;5.32;;;3.50;;
34541;SDS011;20784;51.332;12.410;2023-07-24T07:09:15;7.97;;;3.78;;
34541;SDS011;20784;51.332;12.410;2023-07-24T07:11:41;6.43;;;3.30;;
34541;SDS011;20784;51.332;12.410;2023-07-24T07:14:09;5.70;;;3.50;;
34541;SDS011;20784;51.332;12.410;2023-07-24T07:16:35;7.70;;;3.22;;
34541;SDS011;20784;51.332;12.410;2023-07-24T07:19:01;5.07;;;3.53;;
34541;SDS011;20784;51.332;12.410;2023-07-24T07:21:30;5.78;;;3.67;;
34541;SDS011;20784;51.332;12.410;2023-07-24T07:23:55;6.65;;;3.38;;
34541;SDS011;20784;51.332;12.410;2023-07-24T07:26:21;6.15;;;3.35;;
34541;SDS011;20784;51.332;12.410;2023-07-24T07:28:47;5.45;;;3.17;;
34541;SDS011;20784;51.332;12.410;2023-07-24T07:31:13;5.82;;;3.55;;
34541;SDS011;20784;51.332;12.410;2023-07-24T07:33:38;7.20;;;3.50;;
34541;SDS011;20784;51.332;12.410;2023-07-24T07:38:36;5.00;;;2.83;;
34541;SDS011;20784;51.332;12.410;2023-07-24T07:41:04;5.38;;;3.65;;
34541;SDS011;20784;51.332;12.410;2023-07-24T07:43:30;5.28;;;3.72;;
34541;SDS011;20784;51.332;12.410;2023-07-24T07:45:56;5.15;;;3.13;;
34541;SDS011;20784;51.332;12.410;2023-07-24T07:48:26;5.90;;;3.40;;
34541;SDS011;20784;51.332;12.410;2023-07-24T07:50:52;6.20;;;3.72;;
34541;SDS011;20784;51.332;12.410;2023-07-24T07:53:17;5.85;;;3.72;;
34541;SDS011;20784;51.332;12.410;2023-07-24T07:55:43;8.80;;;3.72;;
34541;SDS011;20784;51.332;12.410;2023-07-24T07:58:09;5.47;;;3.53;;
34541;SDS011;20784;51.332;12.410;2023-07-24T08:00:34;6.10;;;3.75;;
34541;SDS011;20784;51.332;12.410;2023-07-24T08:03:00;4.55;;;3.40;;
34541;SDS011;20784;51.332;12.410;2023-07-24T08:05:25;8.65;;;3.78;;
34541;SDS011;20784;51.332;12.410;2023-07-24T08:07:51;5.95;;;3.25;;
34541;SDS011;20784;51.332;12.410;2023-07-24T08:10:17;4.90;;;3.30;;
34541;SDS011;20784;51.332;12.410;2023-07-24T08:12:43;6.63;;;3.58;;
34541;SDS011;20784;51.332;12.410;2023-07-24T08:15:11;5.80;;;3.60;;
34541;SDS011;20784;51.332;12.410;2023-07-24T08:17:37;4.63;;;3.40;;
34541;SDS011;20784;51.332;12.410;2023-07-24T08:20:02;5.70;;;3.60;;
34541;SDS011;20784;51.332;12.410;2023-07-24T08:22:28;5.32;;;3.67;;
34541;SDS011;20784;51.332;12.410;2023-07-24T08:24:54;5.55;;;3.47;;
34541;SDS011;20784;51.332;12.410;2023-07-24T08:27:20;5.25;;;3.42;;
34541;SDS011;20784;51.332;12.410;2023-07-24T08:29:46;4.47;;;3.30;;
34541;SDS011;20784;51.332;12.410;2023-07-24T08:32:15;6.82;;;3.63;;
34541;SDS011;20784;51.332;12.410;2023-07-24T08:34:40;6.15;;;3.45;;
34541;SDS011;20784;51.332;12.410;2023-07-24T08:37:09;5.93;;;3.50;;
34541;SDS011;20784;51.332;12.410;2023-07-24T08:39:36;5.82;;;3.70;;
34541;SDS011;20784;51.332;12.410;2023-07-24T08:42:10;6.32;;;3.83;;
34541;SDS011;20784;51.332;12.410;2023-07-24T08:44:37;4.53;;;3.20;;
34541;SDS011;20784;51.332;12.410;2023-07-24T08:47:03;6.35;;;3.25;;
34541;SDS011;20784;51.332;12.410;2023-07-24T08:49:29;5.55;;;3.35;;
34541;SDS011;20784;51.332;12.410;2023-07-24T08:51:56;5.22;;;3.08;;
34541;SDS011;20784;51.332;12.410;2023-07-24T08:54:22;7.82;;;3.53;;
34541;SDS011;20784;51.332;12.410;2023-07-24T08:56:52;4.85;;;3.22;;
34541;SDS011;20784;51.332;12.410;2023-07-24T08:59:20;6.72;;;3.08;;
34541;SDS011;20784;51.332;12.410;2023-07-24T09:01:46;8.50;;;3.67;;
34541;SDS011;20784;51.332;12.410;2023-07-24T09:04:12;5.88;;;3.28;;
34541;SDS011;20784;51.332;12.410;2023-07-24T09:06:37;4.97;;;3.20;;
34541;SDS011;20784;51.332;12.410;2023-07-24T09:09:13;4.53;;;3.00;;
34541;SDS011;20784;51.332;12.410;2023-07-24T09:11:49;5.80;;;3.17;;
34541;SDS011;20784;51.332;12.410;2023-07-24T09:14:22;6.32;;;3.25;;
34541;SDS011;20784;51.332;12.410;2023-07-24T09:17:08;5.03;;;3.40;;
34541;SDS011;20784;51.332;12.410;2023-07-24T09:19:35;5.38;;;3.80;;
34541;SDS011;20784;51.332;12.410;2023-07-24T09:22:09;7.13;;;3.72;;
34541;SDS011;20784;51.332;12.410;2023-07-24T09:24:51;6.32;;;4.15;;
34541;SDS011;20784;51.332;12.410;2023-07-24T09:27:19;6.18;;;3.70;;
34541;SDS011;20784;51.332;12.410;2023-07-24T09:29:45;5.53;;;3.60;;
34541;SDS011;20784;51.332;12.410;2023-07-24T09:32:27;6.82;;;3.22;;
34541;SDS011;20784;51.332;12.410;2023-07-24T09:34:53;4.95;;;3.42;;
34541;SDS011;20784;51.332;12.410;2023-07-24T09:37:25;5.60;;;4.07;;
34541;SDS011;20784;51.332;12.410;2023-07-24T09:40:03;8.70;;;3.47;;
34541;SDS011;20784;51.332;12.410;2023-07-24T09:42:33;5.32;;;3.40;;
34541;SDS011;20784;51.332;12.410;2023-07-24T09:45:00;7.68;;;3.97;;
34541;SDS011;20784;51.332;12.410;2023-07-24T09:47:26;5.68;;;4.05;;
34541;SDS011;20784;51.332;12.410;2023-07-24T09:49:52;6.45;;;3.85;;
34541;SDS011;20784;51.332;12.410;2023-07-24T09:52:21;7.95;;;4.20;;
34541;SDS011;20784;51.332;12.410;2023-07-24T09:54:55;6.07;;;3.95;;
34541;SDS011;20784;51.332;12.410;2023-07-24T09:57:27;5.70;;;4.05;;
34541;SDS011;20784;51.332;12.410;2023-07-24T09:59:54;7.57;;;4.40;;
34541;SDS011;20784;51.332;12.410;2023-07-24T10:02:21;7.63;;;4.45;;
34541;SDS011;20784;51.332;12.410;2023-07-24T10:04:48;6.68;;;4.25;;
34541;SDS011;20784;51.332;12.410;2023-07-24T10:07:17;6.07;;;4.40;;
34541;SDS011;20784;51.332;12.410;2023-07-24T10:09:46;6.00;;;4.25;;
34541;SDS011;20784;51.332;12.410;2023-07-24T10:12:13;7.38;;;4.65;;
34541;SDS011;20784;51.332;12.410;2023-07-24T10:14:40;6.40;;;4.07;;
34541;SDS011;20784;51.332;12.410;2023-07-24T10:17:06;6.50;;;4.10;;
34541;SDS011;20784;51.332;12.410;2023-07-24T10:19:41;6.18;;;4.43;;
34541;SDS011;20784;51.332;12.410;2023-07-24T10:22:16;8.13;;;5.07;;
34541;SDS011;20784;51.332;12.410;2023-07-24T10:24:44;8.02;;;4.65;;
34541;SDS011;20784;51.332;12.410;2023-07-24T10:27:11;6.43;;;4.47;;
34541;SDS011;20784;51.332;12.410;2023-07-24T10:29:37;6.40;;;4.82;;
34541;SDS011;20784;51.332;12.410;2023-07-24T10:32:02;6.53;;;4.45;;
34541;SDS011;20784;51.332;12.410;2023-07-24T10:34:38;6.78;;;4.68;;
34541;SDS011;20784;51.332;12.410;2023-07-24T10:37:06;8.13;;;4.85;;
34541;SDS011;20784;51.332;12.410;2023-07-24T10:39:37;9.18;;;4.70;;
34541;SDS011;20784;51.332;12.410;2023-07-24T10:42:07;7.45;;;4.75;;
34541;SDS011;20784;51.332;12.410;2023-07-24T10:44:34;8.85;;;5.07;;
34541;SDS011;20784;51.332;12.410;2023-07-24T10:46:59;7.90;;;4.85;;
34541;SDS011;20784;51.332;12.410;2023-07-24T10:49:26;8.20;;;5.40;;
34541;SDS011;20784;51.332;12.410;2023-07-24T10:51:55;8.27;;;4.93;;
34541;SDS011;20784;51.332;12.410;2023-07-24T10:54:24;8.40;;;5.05;;
34541;SDS011;20784;51.332;12.410;2023-07-24T10:56:49;8.05;;;4.93;;
34541;SDS011;20784;51.332;12.410;2023-07-24T10:59:22;9.73;;;5.65;;
34541;SDS011;20784;51.332;12.410;2023-07-24T11:01:47;9.77;;;5.40;;
34541;SDS011;20784;51.332;12.410;2023-07-24T11:04:13;9.68;;;5.50;;
34541;SDS011;20784;51.332;12.410;2023-07-24T11:06:38;9.90;;;6.05;;
34541;SDS011;20784;51.332;12.410;2023-07-24T11:09:05;8.85;;;5.03;;
34541;SDS011;20784;51.332;12.410;2023-07-24T11:11:31;8.68;;;5.30;;
34541;SDS011;20784;51.332;12.410;2023-07-24T11:13:57;9.93;;;4.45;;
34541;SDS011;20784;51.332;12.410;2023-07-24T11:16:23;12.80;;;4.95;;
34541;SDS011;20784;51.332;12.410;2023-07-24T11:18:50;9.93;;;5.10;;
34541;SDS011;20784;51.332;12.410;2023-07-24T11:21:20;9.05;;;4.90;;
34541;SDS011;20784;51.332;12.410;2023-07-24T11:23:54;12.02;;;5.07;;
34541;SDS011;20784;51.332;12.410;2023-07-24T11:26:24;10.05;;;6.05;;
34541;SDS011;20784;51.332;12.410;2023-07-24T11:28:50;12.50;;;5.22;;
34541;SDS011;20784;51.332;12.410;2023-07-24T11:31:19;12.35;;;6.05;;
34541;SDS011;20784;51.332;12.410;2023-07-24T11:33:45;6.63;;;4.70;;
34541;SDS011;20784;51.332;12.410;2023-07-24T11:36:15;9.15;;;5.60;;
34541;SDS011;20784;51.332;12.410;2023-07-24T11:38:41;8.35;;;5.47;;
34541;SDS011;20784;51.332;12.410;2023-07-24T11:41:08;8.80;;;5.05;;
34541;SDS011;20784;51.332;12.410;2023-07-24T11:43:34;7.35;;;5.03;;
34541;SDS011;20784;51.332;12.410;2023-07-24T11:46:02;9.65;;;5.70;;
34541;SDS011;20784;51.332;12.410;2023-07-24T11:48:28;11.50;;;5.43;;
34541;SDS011;20784;51.332;12.410;2023-07-24T11:50:57;10.20;;;5.43;;
34541;SDS011;20784;51.332;12.410;2023-07-24T11:55:52;9.90;;;5.72;;
34541;SDS011;20784;51.332;12.410;2023-07-24T11:58:21;8.80;;;5.40;;
34541;SDS011;20784;51.332;12.410;2023-07-24T12:00:51;13.10;;;6.13;;
34541;SDS011;20784;51.332;12.410;2023-07-24T12:03:20;10.50;;;5.88;;
34541;SDS011;20784;51.332;12.410;2023-07-24T12:05:46;10.57;;;5.75;;
34541;SDS011;20784;51.332;12.410;2023-07-24T12:08:12;8.73;;;5.35;;
34541;SDS011;20784;51.332;12.410;2023-07-24T12:10:39;10.05;;;5.88;;
34541;SDS011;20784;51.332;12.410;2023-07-24T12:13:05;8.07;;;5.65;;
34541;SDS011;20784;51.332;12.410;2023-07-24T12:15:31;11.40;;;5.82;;
34541;SDS011;20784;51.332;12.410;2023-07-24T12:17:59;9.95;;;5.70;;
34541;SDS011;20784;51.332;12.410;2023-07-24T12:20:25;8.95;;;4.97;;
34541;SDS011;20784;51.332;12.410;2023-07-24T12:22:51;8.45;;;5.90;;
34541;SDS011;20784;51.332;12.410;2023-07-24T12:25:17;9.35;;;5.80;;
34541;SDS011;20784;51.332;12.410;2023-07-24T12:27:44;9.30;;;5.65;;
34541;SDS011;20784;51.332;12.410;2023-07-24T12:30:10;8.77;;;5.97;;
34541;SDS011;20784;51.332;12.410;2023-07-24T12:32:35;9.88;;;5.70;;
34541;SDS011;20784;51.332;12.410;2023-07-24T12:35:01;10.65;;;4.80;;
34541;SDS011;20784;51.332;12.410;2023-07-24T12:37:27;9.75;;;5.80;;
34541;SDS011;20784;51.332;12.410;2023-07-24T12:39:53;13.45;;;5.75;;
34541;SDS011;20784;51.332;12.410;2023-07-24T12:42:19;8.48;;;5.43;;
34541;SDS011;20784;51.332;12.410;2023-07-24T12:44:47;11.68;;;5.78;;
34541;SDS011;20784;51.332;12.410;2023-07-24T12:47:12;8.57;;;5.55;;
34541;SDS011;20784;51.332;12.410;2023-07-24T12:49:38;10.13;;;6.25;;
34541;SDS011;20784;51.332;12.410;2023-07-24T12:52:04;12.00;;;6.10;;
34541;SDS011;20784;51.332;12.410;2023-07-24T12:54:31;9.70;;;5.95;;
34541;SDS011;20784;51.332;12.410;2023-07-24T12:56:57;9.80;;;5.55;;
34541;SDS011;20784;51.332;12.410;2023-07-24T12:59:23;11.73;;;5.82;;
34541;SDS011;20784;51.332;12.410;2023-07-24T13:01:48;10.00;;;6.05;;
34541;SDS011;20784;51.332;12.410;2023-07-24T13:04:14;12.90;;;5.80;;
34541;SDS011;20784;51.332;12.410;2023-07-24T13:06:39;7.68;;;5.55;;
34541;SDS011;20784;51.332;12.410;2023-07-24T13:09:05;10.70;;;5.82;;
34541;SDS011;20784;51.332;12.410;2023-07-24T13:11:31;8.43;;;5.35;;
34541;SDS011;20784;51.332;12.410;2023-07-24T13:13:57;13.32;;;5.93;;
34541;SDS011;20784;51.332;12.410;2023-07-24T13:16:23;10.23;;;6.18;;
34541;SDS011;20784;51.332;12.410;2023-07-24T13:18:49;7.82;;;5.30;;
34541;SDS011;20784;51.332;12.410;2023-07-24T13:21:14;10.65;;;6.13;;
34541;SDS011;20784;51.332;12.410;2023-07-24T13:23:40;8.90;;;6.20;;
34541;SDS011;20784;51.332;12.410;2023-07-24T13:26:06;13.43;;;6.57;;
34541;SDS011;20784;51.332;12.410;2023-07-24T13:28:38;11.13;;;6.15;;
34541;SDS011;20784;51.332;12.410;2023-07-24T13:31:12;10.93;;;5.97;;
34541;SDS011;20784;51.332;12.410;2023-07-24T13:33:38;8.73;;;6.22;;
34541;SDS011;20784;51.332;12.410;2023-07-24T13:36:10;15.48;;;5.90;;
34541;SDS011;20784;51.332;12.410;2023-07-24T13:38:36;11.73;;;6.05;;
34541;SDS011;20784;51.332;12.410;2023-07-24T13:41:02;10.32;;;6.22;;
34541;SDS011;20784;51.332;12.410;2023-07-24T13:43:29;10.35;;;5.93;;
34541;SDS011;20784;51.332;12.410;2023-07-24T13:45:55;10.73;;;5.85;;
34541;SDS011;20784;51.332;12.410;2023-07-24T13:48:22;8.50;;;5.90;;
34541;SDS011;20784;51.332;12.410;2023-07-24T13:50:47;9.60;;;6.07;;
34541;SDS011;20784;51.332;12.410;2023-07-24T13:53:14;9.18;;;5.70;;
34541;SDS011;20784;51.332;12.410;2023-07-24T13:55:40;8.38;;;5.45;;
34541;SDS011;20784;51.332;12.410;2023-07-24T13:58:05;8.40;;;5.63;;
34541;SDS011;20784;51.332;12.410;2023-07-24T14:00:31;9.00;;;5.53;;
34541;SDS011;20784;51.332;12.410;2023-07-24T14:02:56;10.00;;;5.93;;
34541;SDS011;20784;51.332;12.410;2023-07-24T14:05:22;9.13;;;6.05;;
34541;SDS011;20784;51.332;12.410;2023-07-24T14:07:48;8.70;;;5.60;;
34541;SDS011;20784;51.332;12.410;2023-07-24T14:10:13;12.63;;;6.03;;
34541;SDS011;20784;51.332;12.410;2023-07-24T14:12:39;8.82;;;5.95;;
34541;SDS011;20784;51.332;12.410;2023-07-24T14:15:05;8.77;;;5.63;;
34541;SDS011;20784;51.332;12.410;2023-07-24T14:17:31;8.05;;;5.13;;
34541;SDS011;20784;51.332;12.410;2023-07-24T14:19:56;9.48;;;6.05;;
34541;SDS011;20784;51.332;12.410;2023-07-24T14:22:22;9.73;;;6.10;;
34541;SDS011;20784;51.332;12.410;2023-07-24T14:24:48;9.18;;;5.93;;
34541;SDS011;20784;51.332;12.410;2023-07-24T14:27:13;9.07;;;5.55;;
34541;SDS011;20784;51.332;12.410;2023-07-24T14:29:39;10.00;;;5.63;;
34541;SDS011;20784;51.332;12.410;2023-07-24T14:32:05;9.85;;;6.20;;
34541;SDS011;20784;51.332;12.410;2023-07-24T14:34:34;11.45;;;5.97;;
34541;SDS011;20784;51.332;12.410;2023-07-24T14:36:59;11.18;;;5.30;;
34541;SDS011;20784;51.332;12.410;2023-07-24T14:39:25;9.18;;;5.75;;
34541;SDS011;20784;51.332;12.410;2023-07-24T14:41:51;8.23;;;5.82;;
34541;SDS011;20784;51.332;12.410;2023-07-24T14:44:17;9.70;;;4.88;;